Independence, KY (41051)

6:53 AM EDT on August 27, 2014 (GMT -0400)
Cincinnati-Northern KY International | Change Station
CLOSE
Current Station
Airport
Location: Covington,
Elevation: 876 ft
Nearby Weather Stations

Elev 876 ft 39.04 °N, 84.67 °W | Updated 1 hour ago

Scattered Clouds
Scattered Clouds
70 °F
Feels Like 70 °F
N
4
Wind Variable Wind from South

Today
High -- | Low -- °F
--% Chance of Precip.
Yesterday
High -- | Low -- °F
Precip. -- in
7:02 AM 8:16 PM
Waxing Crescent, 3% visible
Pressure 30.06 in
Visibility 5.0 miles
Clouds Few 7500 ft
Scattered Clouds 25000 ft
Dew Point 67 °F
Humidity 90%
Rainfall 0.00 in
Snow Depth Not available.
UV 0 out of 12
Pollen 10.80 out of 12
Air Quality Not available.
Flu Activity Not available.
METAR KCVG 270952Z 19003KT 5SM BR FEW075 SCT250 21/19 A3009 RMK AO2 SLP179 T02110194

More Conditions Fewer Conditions

Pressure 30.06 in
Visibility 5.0 miles
Clouds Few 7500 ft
Scattered Clouds 25000 ft
Dew Point 67 °F
Humidity 90%
Rainfall 0.00 in
Snow Depth Not available.
UV 0 out of 12
Pollen 10.80 out of 12
Air Quality Not available.
Flu Activity Not available.
METAR KCVG 270952Z 19003KT 5SM BR FEW075 SCT250 21/19 A3009 RMK AO2 SLP179 T02110194

More Conditions Fewer Conditions

10-Day Weather Forecast

Almanac

Astronomy

Aug. 27, 2014 Rise Set
Actual Time 7:02 AM EDT 8:16 PM EDT
Civil Twilight 6:34 AM EDT 8:43 PM EDT
Nautical Twilight 6:01 AM EDT 9:16 PM EDT
Astronomical Twilight 5:27 AM EDT 9:51 PM EDT
Moon 8:56 AM EDT 9:09 PM EDT
Length of Visible Light 14h 08m
Length of Day
13h 13m
Tomorrow will be 2m 23s shorter.
Waxing Crescent, 3% of the Moon is Illuminated
Today
Waxing Crescent
Sep 2
First Quarter
Sep 8
Full
Sep 15
Last Quarter
Sep 24
New

Today's Extremes

State Highs State Lows

Community

WunderPhotos

Upload Photos

1,747,666 photos uploaded!

Nearby

Snow Depth

Station Depth Elevation
No new snow has been reported.

Earthquake Activity

City Distance Mag. Time & Date
No recent earthquake activity has been reported nearby.
Minimum magnitude displayed is 2.5.

Coastal Water Temperatures

Place Temperature
No Stations Reporting

Nearby Weather Stations